Time;durP1;ratioP1;P1;durP2;ratioP2;P2;SDS_P1;SDS_P2;PMS_P1;PMS_P2;Temp;Humidity;BMP_temperature;BMP_pressure;BME280_temperature;BME280_humidity;BME280_pressure;Samples;Min_cycle;Max_cycle;Signal;HPM_P1;HPM_P2
2021/12/20 00:01:02;;;;;;;3.33;2.90;;;4.70;99.90;;;;;;4995859;28;20031;-68
2021/12/20 00:03:28;;;;;;;3.15;1.75;;;4.70;99.90;;;;;;4999348;28;20034;-68
2021/12/20 00:05:54;;;;;;;1.70;1.15;;;4.70;99.90;;;;;;4992654;28;20046;-68
2021/12/20 00:08:19;;;;;;;1.05;0.55;;;4.70;99.90;;;;;;4990402;28;20030;-67
2021/12/20 00:10:45;;;;;;;1.10;0.63;;;4.60;99.90;;;;;;4991195;28;20101;-66
2021/12/20 00:13:11;;;;;;;0.50;0.50;;;4.30;99.90;;;;;;4996806;28;20624;-67
2021/12/20 00:15:36;;;;;;;0.68;0.68;;;4.00;99.90;;;;;;5001021;28;20128;-68
2021/12/20 00:18:02;;;;;;;1.27;1.00;;;3.90;99.90;;;;;;5000353;28;20116;-68
2021/12/20 00:20:28;;;;;;;0.85;0.85;;;3.90;99.90;;;;;;5003364;28;20062;-67
2021/12/20 00:22:54;;;;;;;2.45;0.98;;;4.00;99.90;;;;;;4998261;28;20113;-68
2021/12/20 00:25:19;;;;;;;2.70;0.95;;;4.10;99.90;;;;;;5001023;28;20396;-68
2021/12/20 00:27:45;;;;;;;0.80;0.80;;;4.20;99.90;;;;;;5001777;28;20022;-67
2021/12/20 00:30:11;;;;;;;1.45;0.80;;;4.30;99.90;;;;;;5002391;28;20531;-68
2021/12/20 00:32:38;;;;;;;0.90;0.63;;;4.20;99.70;;;;;;5002406;28;20038;-67
2021/12/20 00:35:04;;;;;;;1.48;0.60;;;4.30;99.30;;;;;;5000339;28;20026;-67
2021/12/20 00:40:21;;;;;;;1.67;0.55;;;4.20;99.10;;;;;;5002707;28;20108;-68
2021/12/20 00:42:53;;;;;;;0.88;0.57;;;4.30;98.80;;;;;;5003202;28;20038;-68
2021/12/20 00:45:19;;;;;;;;;;;4.30;98.70;;;;;;4999275;28;20080;-68
2021/12/20 00:47:45;;;;;;;0.80;0.60;;;4.30;98.30;;;;;;4995479;28;19948;-69
2021/12/20 00:50:13;;;;;;;1.33;0.50;;;4.30;97.90;;;;;;5001224;28;20486;-69
2021/12/20 00:52:41;;;;;;;0.65;0.50;;;4.30;97.60;;;;;;4999572;28;20633;-69
2021/12/20 00:55:07;;;;;;;2.60;0.52;;;4.30;97.10;;;;;;5001504;28;20038;-68
2021/12/20 00:57:33;;;;;;;1.30;0.65;;;4.30;96.10;;;;;;4997603;28;20057;-69
2021/12/20 00:59:59;;;;;;;0.80;0.40;;;4.30;95.20;;;;;;5003322;28;20030;-68
2021/12/20 01:02:25;;;;;;;0.55;0.20;;;4.30;94.80;;;;;;5001438;28;20033;-67
2021/12/20 01:04:50;;;;;;;0.35;0.22;;;4.30;94.70;;;;;;4997661;28;20632;-69
2021/12/20 01:07:16;;;;;;;1.17;0.57;;;4.30;93.80;;;;;;4995030;28;20026;-69
2021/12/20 01:09:42;;;;;;;0.20;0.20;;;4.30;94.20;;;;;;4992541;28;20093;-67
2021/12/20 01:12:15;;;;;;;1.13;0.40;;;4.20;94.60;;;;;;4997584;28;20567;-67
2021/12/20 01:14:40;;;;;;;0.93;0.40;;;4.30;94.40;;;;;;4999331;28;20034;-68
2021/12/20 01:17:06;;;;;;;0.95;0.57;;;4.20;94.40;;;;;;4999501;28;20955;-67
2021/12/20 01:19:33;;;;;;;0.75;0.40;;;4.20;94.40;;;;;;5001825;28;20038;-68
2021/12/20 01:22:00;;;;;;;0.40;0.30;;;4.10;94.30;;;;;;5002746;28;20485;-68
2021/12/20 01:24:26;;;;;;;0.75;0.32;;;4.10;94.60;;;;;;4999875;28;20041;-67
2021/12/20 01:26:52;;;;;;;1.23;0.60;;;4.20;94.80;;;;;;5003742;28;20034;-69
2021/12/20 01:29:18;;;;;;;0.63;0.40;;;4.20;94.90;;;;;;5003817;28;20402;-69
2021/12/20 01:31:43;;;;;;;0.65;0.40;;;4.10;95.20;;;;;;5002262;28;20503;-70
2021/12/20 01:34:12;;;;;;;0.60;0.30;;;4.10;95.10;;;;;;4989996;28;20030;-70
2021/12/20 01:36:37;;;;;;;0.40;0.30;;;4.10;95.10;;;;;;4993476;28;20060;-69
2021/12/20 01:39:04;;;;;;;0.45;0.30;;;4.10;95.30;;;;;;4995308;28;20125;-70
2021/12/20 01:41:30;;;;;;;1.10;0.55;;;4.10;95.30;;;;;;4994962;28;20436;-70
2021/12/20 01:43:55;;;;;;;0.50;0.30;;;4.00;94.60;;;;;;4998999;28;20054;-70
2021/12/20 01:46:23;;;;;;;0.52;0.40;;;4.00;94.70;;;;;;4999075;28;20111;-69
2021/12/20 01:48:48;;;;;;;1.33;0.43;;;4.00;94.00;;;;;;5001607;28;20481;-70
2021/12/20 01:51:46;;;;;;;0.98;0.40;;;4.00;93.90;;;;;;5002462;28;20040;-69
2021/12/20 01:54:03;;;;;;;0.77;0.40;;;4.00;93.50;;;;;;5004809;28;20065;-69
2021/12/20 01:56:33;;;;;;;0.32;0.20;;;4.00;93.40;;;;;;4998806;28;20053;-70
2021/12/20 01:59:04;;;;;;;0.70;0.38;;;4.00;93.70;;;;;;5001554;28;20061;-70
2021/12/20 02:01:30;;;;;;;1.23;0.65;;;3.90;93.30;;;;;;5001349;28;20041;-70
2021/12/20 02:03:59;;;;;;;0.95;0.30;;;3.90;93.40;;;;;;5000315;28;20029;-70
2021/12/20 02:06:34;;;;;;;1.15;0.45;;;3.90;93.40;;;;;;5003773;28;20037;-70
2021/12/20 02:09:12;;;;;;;1.02;0.40;;;4.00;93.10;;;;;;4997970;28;20037;-70
2021/12/20 02:11:40;;;;;;;1.35;0.50;;;4.00;93.60;;;;;;4996400;28;20394;-70
2021/12/20 02:14:07;;;;;;;0.80;0.60;;;4.00;93.20;;;;;;4999377;28;20030;-69
2021/12/20 02:16:34;;;;;;;1.33;0.40;;;3.80;92.30;;;;;;4997302;28;20030;-69
2021/12/20 02:19:05;;;;;;;0.98;0.38;;;3.80;92.50;;;;;;5001432;28;20034;-69
2021/12/20 02:21:32;;;;;;;1.58;0.50;;;3.70;92.30;;;;;;4998766;28;20408;-69
2021/12/20 02:23:58;;;;;;;0.80;0.30;;;3.80;91.90;;;;;;4999080;28;20030;-69
2021/12/20 02:26:24;;;;;;;1.38;0.40;;;3.70;91.70;;;;;;4999344;28;20045;-70
2021/12/20 02:28:53;;;;;;;2.03;0.40;;;3.80;91.90;;;;;;5001456;28;20022;-69
2021/12/20 02:37:17;;;;;;;2.17;0.65;;;3.80;90.60;;;;;;5003555;28;20638;-70
2021/12/20 02:39:43;;;;;;;1.40;0.50;;;3.70;90.00;;;;;;5003341;28;20029;-69
2021/12/20 02:42:16;;;;;;;0.93;0.50;;;3.70;90.70;;;;;;5000149;28;20077;-67
2021/12/20 02:45:08;;;;;;;0.60;0.40;;;3.70;90.70;;;;;;5002504;28;20038;-69
2021/12/20 02:47:37;;;;;;;1.15;0.50;;;3.70;90.30;;;;;;4999743;28;20186;-69
2021/12/20 02:50:03;;;;;;;0.50;0.30;;;3.60;90.40;;;;;;4997776;28;20038;-67
2021/12/20 02:52:29;;;;;;;1.15;0.40;;;3.60;90.10;;;;;;5001373;28;20034;-69
2021/12/20 02:54:54;;;;;;;1.38;0.50;;;3.50;90.00;;;;;;4997776;28;21014;-68
2021/12/20 02:57:20;;;;;;;1.50;0.40;;;3.50;90.00;;;;;;4999600;28;20473;-69
2021/12/20 02:59:46;;;;;;;1.50;0.50;;;3.40;90.00;;;;;;5003059;28;20064;-69
2021/12/20 03:02:12;;;;;;;1.25;0.45;;;3.30;90.50;;;;;;4995961;28;21214;-68
2021/12/20 03:04:38;;;;;;;0.57;0.38;;;3.30;90.30;;;;;;4996597;28;20022;-69
2021/12/20 03:07:11;;;;;;;0.85;0.50;;;3.30;90.40;;;;;;4996161;28;20037;-69
2021/12/20 03:09:42;;;;;;;1.65;0.55;;;3.30;90.30;;;;;;4999569;28;20045;-68
2021/12/20 03:12:11;;;;;;;0.67;0.50;;;3.30;90.40;;;;;;4997247;28;20108;-69
2021/12/20 03:14:41;;;;;;;2.65;0.73;;;3.30;90.50;;;;;;5001606;28;20027;-69
2021/12/20 03:17:07;;;;;;;1.30;0.50;;;3.30;90.80;;;;;;4994148;28;20633;-69
2021/12/20 03:19:33;;;;;;;0.82;0.30;;;3.30;90.90;;;;;;4994607;28;20694;-69
2021/12/20 03:21:59;;;;;;;1.67;0.47;;;3.30;90.80;;;;;;4992726;28;20085;-69
2021/12/20 03:24:25;;;;;;;2.05;0.73;;;3.30;90.60;;;;;;4999491;28;20042;-69
2021/12/20 03:26:52;;;;;;;2.20;0.68;;;3.40;90.60;;;;;;4997083;28;20569;-68
2021/12/20 03:29:17;;;;;;;0.95;0.50;;;3.40;90.20;;;;;;5000457;28;20387;-69
2021/12/20 03:31:43;;;;;;;1.23;0.68;;;3.40;90.40;;;;;;5001545;28;20078;-68
2021/12/20 03:34:09;;;;;;;0.68;0.32;;;3.40;89.80;;;;;;4996722;28;20084;-68
2021/12/20 03:36:36;;;;;;;1.20;0.50;;;3.40;87.90;;;;;;4996654;28;20034;-69
2021/12/20 03:39:04;;;;;;;1.02;0.55;;;3.30;88.30;;;;;;4999153;28;20034;-68
2021/12/20 03:41:30;;;;;;;0.68;0.30;;;3.30;88.90;;;;;;5001130;28;20041;-68
2021/12/20 03:43:56;;;;;;;0.40;0.40;;;3.20;89.40;;;;;;4997578;28;20030;-68
2021/12/20 03:46:22;;;;;;;2.20;0.60;;;3.20;88.90;;;;;;4998796;28;20058;-69
2021/12/20 03:48:48;;;;;;;0.80;0.35;;;3.20;89.10;;;;;;4998602;28;20444;-69
2021/12/20 03:51:13;;;;;;;2.47;0.77;;;3.20;88.40;;;;;;4994341;28;20160;-69
2021/12/20 03:53:42;;;;;;;1.35;0.50;;;3.20;86.70;;;;;;4999489;28;20088;-68
2021/12/20 03:56:08;;;;;;;1.58;0.50;;;3.20;88.20;;;;;;5002501;28;20046;-69
2021/12/20 03:58:34;;;;;;;0.35;0.30;;;3.20;86.90;;;;;;5002604;28;20033;-68
2021/12/20 04:01:07;;;;;;;1.15;0.40;;;3.30;88.30;;;;;;4999152;28;20029;-69
2021/12/20 04:03:35;;;;;;;2.75;0.60;;;3.40;86.90;;;;;;4998767;28;20432;-69
2021/12/20 04:06:04;;;;;;;0.90;0.47;;;3.40;87.10;;;;;;4993798;28;20096;-69
2021/12/20 04:08:29;;;;;;;0.93;0.40;;;3.30;86.20;;;;;;4990270;28;20022;-70
2021/12/20 04:10:55;;;;;;;1.23;0.30;;;3.20;85.90;;;;;;4995442;28;20477;-69
2021/12/20 04:13:21;;;;;;;0.88;0.40;;;3.10;86.20;;;;;;4991036;28;20030;-69
2021/12/20 04:15:47;;;;;;;2.20;0.60;;;3.10;85.80;;;;;;4991437;28;20116;-70
2021/12/20 04:18:12;;;;;;;0.20;0.20;;;3.20;85.30;;;;;;4993698;28;20014;-70
2021/12/20 04:20:38;;;;;;;0.50;0.30;;;3.20;84.90;;;;;;4995798;28;20041;-69
2021/12/20 04:23:04;;;;;;;0.47;0.47;;;3.20;83.40;;;;;;4992769;28;20066;-69
2021/12/20 04:25:29;;;;;;;0.85;0.40;;;3.20;84.60;;;;;;4998286;28;20116;-70
2021/12/20 04:27:55;;;;;;;1.05;0.60;;;3.20;83.30;;;;;;5000232;28;20682;-69
2021/12/20 04:30:21;;;;;;;3.45;0.40;;;3.30;85.00;;;;;;5004994;28;20029;-69
2021/12/20 04:32:47;;;;;;;0.73;0.50;;;3.30;82.70;;;;;;5004284;28;20031;-69
2021/12/20 04:35:14;;;;;;;0.82;0.50;;;3.30;83.60;;;;;;5003397;28;20046;-70
2021/12/20 04:37:43;;;;;;;1.13;0.40;;;3.30;83.30;;;;;;5002271;28;20018;-70
2021/12/20 04:40:15;;;;;;;1.60;0.60;;;3.30;81.60;;;;;;5004814;28;20026;-70
2021/12/20 04:42:41;;;;;;;;;;;3.30;83.50;;;;;;5004092;28;20038;-70
2021/12/20 04:45:09;;;;;;;1.52;0.50;;;3.30;83.10;;;;;;5007779;28;20367;-70
2021/12/20 04:47:35;;;;;;;0.98;0.40;;;3.30;82.90;;;;;;5002060;28;20061;-70
2021/12/20 04:50:01;;;;;;;1.20;0.63;;;3.30;81.90;;;;;;4999085;28;20022;-69
2021/12/20 04:52:28;;;;;;;1.23;0.60;;;3.30;79.80;;;;;;4997899;28;20048;-69
2021/12/20 04:54:54;;;;;;;0.30;0.30;;;3.30;81.40;;;;;;5003554;28;20018;-68
2021/12/20 04:57:20;;;;;;;1.73;0.60;;;3.30;83.30;;;;;;5002295;28;20502;-68
2021/12/20 04:59:45;;;;;;;1.17;0.40;;;3.40;82.90;;;;;;5001733;28;20052;-69
2021/12/20 05:02:11;;;;;;;0.82;0.45;;;3.30;81.90;;;;;;5001572;28;20588;-69
2021/12/20 05:04:36;;;;;;;2.53;0.57;;;3.30;82.40;;;;;;5001157;28;20177;-69
2021/12/20 05:07:03;;;;;;;1.60;0.50;;;3.30;81.40;;;;;;4997926;28;20754;-69
2021/12/20 05:09:35;;;;;;;0.85;0.57;;;3.30;81.70;;;;;;4996919;28;20034;-69
2021/12/20 05:12:10;;;;;;;0.80;0.40;;;3.20;81.30;;;;;;4995634;28;20036;-70
2021/12/20 05:14:36;;;;;;;0.82;0.40;;;3.20;81.60;;;;;;4995201;28;20042;-69
2021/12/20 05:17:02;;;;;;;0.85;0.45;;;3.10;81.80;;;;;;5001164;28;20049;-69
2021/12/20 05:19:28;;;;;;;1.23;0.50;;;3.20;81.20;;;;;;5001382;28;20035;-69
2021/12/20 05:21:53;;;;;;;1.33;0.85;;;3.10;82.30;;;;;;5001557;28;20030;-69
2021/12/20 05:24:19;;;;;;;1.30;0.50;;;3.10;82.80;;;;;;4999550;28;20503;-69
2021/12/20 05:26:45;;;;;;;0.73;0.43;;;3.20;83.00;;;;;;4999629;28;20033;-69
2021/12/20 05:29:10;;;;;;;1.13;0.50;;;3.20;82.10;;;;;;5002656;28;20116;-67
2021/12/20 05:31:36;;;;;;;1.38;0.40;;;3.20;82.20;;;;;;4998138;28;20030;-68
2021/12/20 05:34:02;;;;;;;2.13;0.50;;;3.20;82.60;;;;;;5002439;28;20121;-68
2021/12/20 05:36:27;;;;;;;2.70;0.40;;;3.20;81.70;;;;;;5003055;28;20038;-69
2021/12/20 05:38:53;;;;;;;1.13;0.52;;;3.20;80.80;;;;;;4996381;28;20056;-68
2021/12/20 05:41:19;;;;;;;2.65;0.70;;;3.20;81.70;;;;;;5000638;28;20080;-69
2021/12/20 05:43:45;;;;;;;0.82;0.43;;;3.20;82.20;;;;;;5003817;28;20053;-68
2021/12/20 05:46:11;;;;;;;2.05;0.40;;;3.20;82.20;;;;;;4996734;28;20095;-69
2021/12/20 05:48:37;;;;;;;1.42;0.50;;;3.20;81.60;;;;;;5002621;28;20149;-68
2021/12/20 05:51:03;;;;;;;1.05;0.75;;;3.20;82.00;;;;;;5004094;28;20183;-68
2021/12/20 05:53:28;;;;;;;1.63;0.80;;;3.20;82.70;;;;;;5002136;28;20400;-68
2021/12/20 05:55:54;;;;;;;2.25;1.40;;;3.10;81.70;;;;;;5002506;28;20124;-68
2021/12/20 05:58:20;;;;;;;4.15;2.17;;;3.00;84.00;;;;;;5001888;28;20030;-68
2021/12/20 06:00:45;;;;;;;2.85;2.03;;;3.00;85.90;;;;;;4995576;28;20447;-68
2021/12/20 06:03:11;;;;;;;2.17;1.23;;;3.10;86.70;;;;;;4998918;28;20029;-67
2021/12/20 06:05:42;;;;;;;2.05;0.85;;;3.20;87.40;;;;;;4998527;28;20030;-68
2021/12/20 06:08:08;;;;;;;3.63;1.73;;;3.20;87.00;;;;;;4996302;28;20034;-69
2021/12/20 06:10:35;;;;;;;2.78;2.00;;;3.30;87.50;;;;;;4999465;28;20080;-69
2021/12/20 06:13:04;;;;;;;4.00;1.90;;;3.30;88.60;;;;;;5003059;28;20029;-69
2021/12/20 06:15:30;;;;;;;1.88;1.52;;;3.30;89.00;;;;;;4998440;28;20124;-69
2021/12/20 06:17:56;;;;;;;4.22;2.22;;;3.20;89.30;;;;;;4993750;28;20053;-68
2021/12/20 06:20:22;;;;;;;25.45;16.45;;;3.20;90.00;;;;;;4998895;28;20034;-68
2021/12/20 06:22:48;;;;;;;3.00;2.20;;;3.10;90.00;;;;;;4997224;28;20041;-66
2021/12/20 06:25:14;;;;;;;2.78;0.95;;;3.00;90.10;;;;;;4997466;28;20038;-64
2021/12/20 06:27:40;;;;;;;1.95;0.90;;;3.00;88.20;;;;;;4998105;28;20034;-66
2021/12/20 06:30:10;;;;;;;5.13;2.20;;;3.10;89.50;;;;;;4997856;28;20030;-65
2021/12/20 06:32:38;;;;;;;6.55;3.05;;;3.00;89.80;;;;;;4995051;28;21452;-65
2021/12/20 06:35:05;;;;;;;11.38;5.63;;;3.10;90.00;;;;;;4997493;28;20481;-64
2021/12/20 06:37:31;;;;;;;2.58;1.45;;;3.20;90.20;;;;;;4996279;28;20113;-66
2021/12/20 06:39:57;;;;;;;3.83;1.95;;;3.20;86.90;;;;;;4998181;28;20042;-66
2021/12/20 06:42:23;;;;;;;2.25;1.02;;;3.10;85.40;;;;;;5001285;28;20042;-66
2021/12/20 06:44:48;;;;;;;1.67;0.47;;;3.10;83.70;;;;;;5001171;28;20165;-66
2021/12/20 06:47:15;;;;;;;1.20;0.45;;;3.20;82.40;;;;;;4993641;28;20065;-66
2021/12/20 06:49:40;;;;;;;2.60;1.85;;;3.20;82.30;;;;;;4990391;28;20436;-66
2021/12/20 06:52:07;;;;;;;1.95;1.55;;;3.20;81.70;;;;;;4990155;28;20029;-66
2021/12/20 06:54:32;;;;;;;1.70;1.02;;;3.30;82.90;;;;;;4999024;28;20424;-66
2021/12/20 06:56:58;;;;;;;3.85;1.63;;;3.40;82.10;;;;;;4999525;28;20064;-65
2021/12/20 06:59:24;;;;;;;2.95;0.90;;;3.40;82.20;;;;;;5001400;28;20065;-67
2021/12/20 07:01:50;;;;;;;3.30;1.98;;;3.50;81.60;;;;;;5000430;28;20051;-67
2021/12/20 07:04:15;;;;;;;1.25;0.60;;;3.60;80.90;;;;;;5000029;28;20088;-66
2021/12/20 07:06:42;;;;;;;4.32;2.50;;;3.60;80.00;;;;;;4999890;28;20037;-66
2021/12/20 07:09:09;;;;;;;80.57;44.10;;;3.60;78.80;;;;;;5000727;28;20042;-66
2021/12/20 07:11:34;;;;;;;2.97;1.63;;;3.60;79.50;;;;;;5001739;28;20086;-66
2021/12/20 07:14:01;;;;;;;2.15;1.08;;;3.60;78.60;;;;;;4998551;28;20476;-66
2021/12/20 07:16:31;;;;;;;26.42;14.55;;;3.60;80.60;;;;;;5002833;28;20033;-66
2021/12/20 07:18:57;;;;;;;20.23;8.50;;;3.50;80.20;;;;;;4999631;28;20030;-67
2021/12/20 07:21:23;;;;;;;5.00;2.60;;;3.70;79.40;;;;;;4999822;28;20049;-66
2021/12/20 07:23:48;;;;;;;1.08;0.65;;;3.70;79.30;;;;;;4999201;28;20030;-66
2021/12/20 07:26:14;;;;;;;0.95;0.38;;;3.70;79.20;;;;;;5001152;28;20041;-67
2021/12/20 07:28:42;;;;;;;1.17;0.43;;;3.70;79.10;;;;;;4997905;28;20033;-66
2021/12/20 07:31:08;;;;;;;2.53;0.80;;;3.70;80.30;;;;;;4994520;28;20821;-66
2021/12/20 07:33:34;;;;;;;0.95;0.60;;;3.60;81.20;;;;;;5001538;28;20037;-65
2021/12/20 07:36:00;;;;;;;0.70;0.50;;;3.60;80.60;;;;;;5005017;28;20136;-66
2021/12/20 07:38:25;;;;;;;1.45;0.85;;;3.60;80.40;;;;;;4999568;28;20444;-66
2021/12/20 07:40:52;;;;;;;3.28;1.88;;;3.60;80.80;;;;;;4999006;28;20653;-66
2021/12/20 07:43:18;;;;;;;2.45;1.48;;;3.60;82.20;;;;;;4998085;28;20121;-66
2021/12/20 07:45:49;;;;;;;1.65;0.60;;;3.60;82.90;;;;;;5003300;28;20116;-67
2021/12/20 07:48:19;;;;;;;3.80;0.90;;;3.70;81.40;;;;;;4999083;28;20026;-66
2021/12/20 07:50:47;;;;;;;4.03;1.00;;;3.70;82.60;;;;;;4998915;28;20076;-67
2021/12/20 07:53:13;;;;;;;1.95;0.60;;;3.70;82.50;;;;;;5000186;28;20030;-66
2021/12/20 07:55:38;;;;;;;1.55;0.43;;;3.80;81.50;;;;;;4997895;28;20049;-64
2021/12/20 07:58:05;;;;;;;1.88;0.80;;;3.90;81.20;;;;;;4999292;28;20396;-65
2021/12/20 08:00:31;;;;;;;1.48;0.50;;;3.90;81.30;;;;;;4999085;28;20038;-66
2021/12/20 08:02:57;;;;;;;2.13;0.57;;;3.90;81.30;;;;;;4997488;28;20033;-65
2021/12/20 08:05:24;;;;;;;1.38;0.52;;;3.90;82.30;;;;;;4990655;28;20033;-65
2021/12/20 08:07:50;;;;;;;2.67;0.60;;;3.90;81.70;;;;;;4997518;28;20051;-65
2021/12/20 08:10:21;;;;;;;0.93;0.50;;;3.90;81.80;;;;;;4998509;28;20048;-65
2021/12/20 08:12:48;;;;;;;1.52;0.45;;;3.90;82.40;;;;;;4996557;28;20096;-65
2021/12/20 08:15:16;;;;;;;2.55;0.60;;;3.90;82.40;;;;;;4997464;28;20034;-67
2021/12/20 08:17:42;;;;;;;0.63;0.55;;;3.80;82.40;;;;;;4994989;28;20105;-65
2021/12/20 08:20:09;;;;;;;2.00;0.70;;;3.90;82.60;;;;;;5000982;28;20072;-65
2021/12/20 08:22:35;;;;;;;3.25;0.50;;;3.90;82.00;;;;;;4997508;28;20026;-65
2021/12/20 08:25:01;;;;;;;1.15;0.60;;;3.90;82.50;;;;;;5002684;28;20040;-65
2021/12/20 08:27:27;;;;;;;2.60;0.80;;;3.90;82.10;;;;;;4996070;28;20026;-66
2021/12/20 08:29:52;;;;;;;1.15;0.50;;;3.90;82.50;;;;;;5001099;28;20033;-65
2021/12/20 08:32:18;;;;;;;0.93;0.40;;;4.00;84.60;;;;;;4996396;28;20041;-65
2021/12/20 08:34:44;;;;;;;1.08;0.43;;;4.00;82.20;;;;;;4999021;28;20030;-65
2021/12/20 08:37:10;;;;;;;0.47;0.40;;;4.00;83.20;;;;;;4998981;28;20050;-65
2021/12/20 08:39:36;;;;;;;1.55;0.52;;;4.00;82.60;;;;;;4988972;28;20030;-64
2021/12/20 08:42:03;;;;;;;1.55;0.47;;;4.00;83.40;;;;;;4987861;28;20083;-65
2021/12/20 08:44:30;;;;;;;2.45;0.43;;;4.10;84.10;;;;;;4994883;28;20037;-66
2021/12/20 08:46:58;;;;;;;0.47;0.40;;;4.20;82.30;;;;;;4996348;28;20042;-65
2021/12/20 08:49:24;;;;;;;1.42;0.60;;;3.90;82.90;;;;;;5004920;28;20537;-65
2021/12/20 08:51:49;;;;;;;1.00;0.40;;;3.90;83.40;;;;;;5005519;28;20526;-64
2021/12/20 08:54:16;;;;;;;0.93;0.35;;;3.90;83.20;;;;;;5001990;28;20026;-65
2021/12/20 08:56:42;;;;;;;0.95;0.60;;;3.80;83.30;;;;;;5007558;28;20130;-65
2021/12/20 08:59:08;;;;;;;1.30;0.35;;;3.90;83.60;;;;;;5004486;28;20026;-65
2021/12/20 09:01:35;;;;;;;1.08;0.60;;;4.00;83.50;;;;;;4997981;28;20045;-66
2021/12/20 09:04:02;;;;;;;0.95;0.30;;;3.90;83.60;;;;;;4997937;28;20138;-66
2021/12/20 09:06:28;;;;;;;0.30;0.30;;;4.00;83.00;;;;;;5000617;28;20042;-65
2021/12/20 09:08:55;;;;;;;1.45;0.60;;;3.90;84.10;;;;;;4995779;28;20030;-65
2021/12/20 09:11:28;;;;;;;1.60;0.60;;;3.90;83.80;;;;;;4991428;28;20460;-66
2021/12/20 09:13:54;;;;;;;0.70;0.30;;;3.90;83.90;;;;;;4995305;28;20038;-66
2021/12/20 09:16:20;;;;;;;0.73;0.32;;;3.90;84.40;;;;;;4997259;28;20488;-66
2021/12/20 09:18:46;;;;;;;1.00;0.50;;;3.80;83.20;;;;;;4997072;28;20037;-66
2021/12/20 09:21:12;;;;;;;1.48;0.57;;;3.80;84.60;;;;;;4996559;28;20038;-66
2021/12/20 09:23:40;;;;;;;1.45;0.65;;;3.90;84.60;;;;;;4994057;28;20030;-66
2021/12/20 09:26:05;;;;;;;1.23;0.75;;;3.90;84.00;;;;;;4991538;28;20026;-65
2021/12/20 09:28:31;;;;;;;0.95;0.40;;;3.90;84.20;;;;;;4988866;28;20753;-66
2021/12/20 09:30:58;;;;;;;0.90;0.55;;;3.90;83.90;;;;;;4993294;28;20033;-65
2021/12/20 09:33:24;;;;;;;1.95;0.73;;;3.80;84.80;;;;;;4995384;28;20034;-66
2021/12/20 09:35:51;;;;;;;1.63;0.50;;;3.80;84.50;;;;;;4999775;28;20081;-66
2021/12/20 09:38:18;;;;;;;2.35;0.60;;;3.80;84.80;;;;;;4997967;28;20117;-65
2021/12/20 09:43:31;;;;;;;1.20;0.35;;;3.90;85.90;;;;;;4998803;28;20766;-66
2021/12/20 09:45:57;;;;;;;0.75;0.47;;;3.90;83.80;;;;;;5000455;28;20060;-65
2021/12/20 09:48:24;;;;;;;0.85;0.43;;;4.00;84.60;;;;;;4993352;28;20674;-65
2021/12/20 09:50:50;;;;;;;1.10;0.30;;;4.00;82.90;;;;;;4993064;28;20120;-65
2021/12/20 09:53:16;;;;;;;1.52;0.50;;;4.00;82.50;;;;;;4993799;28;21064;-66
2021/12/20 09:55:50;;;;;;;0.63;0.45;;;4.20;82.80;;;;;;4996661;28;20037;-65
2021/12/20 09:58:17;;;;;;;4.75;0.70;;;4.30;82.80;;;;;;5003057;28;20030;-65
2021/12/20 10:00:43;;;;;;;1.25;0.52;;;4.50;82.70;;;;;;4998807;28;20026;-65
2021/12/20 10:03:09;;;;;;;1.33;0.60;;;4.50;80.50;;;;;;4999359;28;20370;-65
2021/12/20 10:05:36;;;;;;;1.45;0.50;;;4.60;80.60;;;;;;4998164;28;20096;-66
2021/12/20 10:08:13;;;;;;;1.13;0.35;;;4.50;80.80;;;;;;4993828;28;20026;-65
2021/12/20 10:10:42;;;;;;;1.45;0.50;;;4.30;80.10;;;;;;4994125;28;20034;-65
2021/12/20 10:13:29;;;;;;;0.80;0.30;;;4.30;81.80;;;;;;4998098;28;20026;-65
2021/12/20 10:15:56;;;;;;;1.02;0.50;;;4.40;82.30;;;;;;4991108;28;20095;-66
2021/12/20 10:18:24;;;;;;;2.33;0.70;;;4.50;82.40;;;;;;4987159;28;20513;-66
2021/12/20 10:20:58;;;;;;;1.55;0.80;;;4.60;81.70;;;;;;4996180;28;20037;-66
2021/12/20 10:23:30;;;;;;;2.17;0.68;;;4.60;82.70;;;;;;4990023;28;20038;-66
2021/12/20 10:26:02;;;;;;;1.55;0.88;;;4.70;83.50;;;;;;4992470;28;20036;-66
2021/12/20 10:28:36;;;;;;;0.57;0.45;;;4.80;81.40;;;;;;4992307;28;20026;-66
2021/12/20 10:31:22;;;;;;;1.15;0.73;;;4.70;80.10;;;;;;4999305;28;20034;-67
2021/12/20 10:33:56;;;;;;;0.65;0.40;;;4.60;80.80;;;;;;4996236;28;20033;-66
2021/12/20 10:36:23;;;;;;;1.52;0.50;;;4.60;80.80;;;;;;4990641;28;20042;-66
2021/12/20 10:38:56;;;;;;;0.70;0.32;;;4.60;80.80;;;;;;4994043;28;20062;-66
2021/12/20 10:41:35;;;;;;;0.57;0.17;;;4.60;81.40;;;;;;5000355;28;20117;-67
2021/12/20 10:44:15;;;;;;;1.48;0.43;;;4.50;82.10;;;;;;5000335;28;20080;-66
2021/12/20 10:46:56;;;;;;;0.40;0.40;;;4.50;82.20;;;;;;5004102;28;20092;-66
2021/12/20 10:49:26;;;;;;;0.52;0.30;;;4.60;80.50;;;;;;4995492;28;20058;-65
2021/12/20 10:51:52;;;;;;;1.48;0.50;;;4.50;81.70;;;;;;4997318;28;20034;-66
2021/12/20 10:54:22;;;;;;;0.60;0.40;;;4.30;82.50;;;;;;4999220;28;20042;-66
2021/12/20 10:56:52;;;;;;;2.60;0.80;;;4.40;83.90;;;;;;4994776;28;20030;-66
2021/12/20 10:59:23;;;;;;;0.77;0.20;;;4.40;82.00;;;;;;4991443;28;20025;-66
2021/12/20 11:04:20;;;;;;;1.55;0.35;;;4.50;81.10;;;;;;4994718;28;20022;-66
2021/12/20 11:09:45;;;;;;;0.93;0.43;;;4.50;81.40;;;;;;4986140;28;20039;-66
2021/12/20 11:12:31;;;;;;;0.50;0.30;;;4.50;80.60;;;;;;4995878;28;20035;-65
2021/12/20 11:15:09;;;;;;;2.03;1.05;;;4.70;80.30;;;;;;4993423;28;20057;-64
2021/12/20 11:17:45;;;;;;;0.80;0.20;;;4.90;79.90;;;;;;4993471;28;20033;-65
2021/12/20 11:20:20;;;;;;;0.85;0.30;;;5.00;79.90;;;;;;4995096;28;20038;-64
2021/12/20 11:22:46;;;;;;;0.32;0.30;;;5.10;80.10;;;;;;5000052;28;20026;-65
2021/12/20 11:25:12;;;;;;;2.03;0.38;;;5.00;80.90;;;;;;4992097;28;20044;-65
2021/12/20 11:27:52;;;;;;;0.82;0.30;;;5.00;79.50;;;;;;4999609;28;20030;-66
2021/12/20 11:30:22;;;;;;;1.48;0.30;;;4.90;78.10;;;;;;4992767;28;20634;-65
2021/12/20 11:32:49;;;;;;;0.93;0.45;;;4.80;80.70;;;;;;4997929;28;20662;-66
2021/12/20 11:35:17;;;;;;;0.98;0.30;;;4.70;78.80;;;;;;4998426;28;20673;-65
2021/12/20 11:37:44;;;;;;;0.70;0.30;;;4.70;79.70;;;;;;4992727;28;20038;-66
2021/12/20 11:40:12;;;;;;;1.40;0.40;;;4.70;81.00;;;;;;4992055;28;20038;-65
2021/12/20 11:42:38;;;;;;;1.83;0.47;;;4.70;81.00;;;;;;4999116;28;20034;-66
2021/12/20 11:45:06;;;;;;;1.58;0.65;;;4.70;81.30;;;;;;5002495;28;20026;-65
2021/12/20 11:47:49;;;;;;;0.82;0.40;;;4.70;81.40;;;;;;5000080;28;20527;-66
2021/12/20 11:50:18;;;;;;;5.78;0.35;;;4.60;81.40;;;;;;4991292;28;20480;-66
2021/12/20 11:52:47;;;;;;;0.73;0.25;;;4.60;80.70;;;;;;5001223;28;20030;-66
2021/12/20 11:55:23;;;;;;;0.75;0.50;;;4.60;79.50;;;;;;4999708;28;20103;-65
2021/12/20 11:57:53;;;;;;;0.82;0.30;;;4.50;80.10;;;;;;4997191;28;20049;-66
2021/12/20 12:00:37;;;;;;;0.60;0.40;;;4.50;80.10;;;;;;4995316;28;20114;-65
2021/12/20 12:03:19;;;;;;;1.33;0.20;;;4.50;79.40;;;;;;4996916;28;20042;-66
2021/12/20 12:05:56;;;;;;;2.28;0.55;;;4.50;79.50;;;;;;4996477;28;20033;-66
2021/12/20 12:08:42;;;;;;;0.82;0.50;;;4.40;80.40;;;;;;4994757;28;20117;-66
2021/12/20 12:11:07;;;;;;;1.58;1.25;;;4.30;81.00;;;;;;4994651;28;20632;-66
2021/12/20 12:14:20;;;;;;;2.13;0.70;;;4.20;82.50;;;;;;4995391;28;20036;-66
2021/12/20 12:16:55;;;;;;;2.63;1.25;;;4.10;82.60;;;;;;4997730;28;21201;-66
2021/12/20 12:19:40;;;;;;;1.50;0.88;;;4.20;83.20;;;;;;5005695;28;20061;-66
2021/12/20 12:22:30;;;;;;;1.45;0.70;;;4.10;83.60;;;;;;5006290;28;20017;-66
2021/12/20 12:24:57;;;;;;;0.57;0.50;;;4.10;83.30;;;;;;5002216;28;20584;-66
2021/12/20 12:27:34;;;;;;;0.47;0.30;;;4.10;84.50;;;;;;5005352;28;20018;-66
2021/12/20 12:30:12;;;;;;;0.73;0.50;;;4.00;84.00;;;;;;5003193;28;20404;-66
2021/12/20 12:32:58;;;;;;;1.77;0.30;;;4.10;84.00;;;;;;5000619;28;20100;-66
2021/12/20 12:35:42;;;;;;;1.08;0.47;;;4.10;83.80;;;;;;5011172;28;20057;-66
2021/12/20 12:38:35;;;;;;;0.47;0.20;;;4.10;84.10;;;;;;5005492;28;20030;-66
2021/12/20 12:41:09;;;;;;;0.60;0.30;;;4.10;84.70;;;;;;5004432;28;20056;-66
2021/12/20 12:43:50;;;;;;;2.05;0.50;;;4.20;85.00;;;;;;5005208;28;20117;-66
2021/12/20 12:46:36;;;;;;;0.88;0.50;;;4.20;85.50;;;;;;4999449;28;20050;-66
2021/12/20 12:49:22;;;;;;;0.82;0.38;;;4.30;85.00;;;;;;5007403;28;20032;-66
2021/12/20 12:52:05;;;;;;;1.45;0.30;;;4.20;84.80;;;;;;4999215;28;20023;-66
2021/12/20 12:54:34;;;;;;;3.40;0.60;;;4.20;84.10;;;;;;5006479;28;20038;-66
2021/12/20 12:57:11;;;;;;;1.02;0.38;;;4.20;84.80;;;;;;5004462;28;20060;-66
2021/12/20 12:59:45;;;;;;;1.15;0.50;;;4.30;84.90;;;;;;5005498;28;20023;-66
2021/12/20 13:02:19;;;;;;;0.75;0.57;;;4.30;84.50;;;;;;5003622;28;20117;-66
2021/12/20 13:04:56;;;;;;;0.82;0.30;;;4.30;85.10;;;;;;5003701;28;20026;-67
2021/12/20 13:07:28;;;;;;;1.92;0.50;;;4.20;84.60;;;;;;4999308;28;20029;-66
2021/12/20 13:09:57;;;;;;;0.73;0.40;;;4.20;84.20;;;;;;5001042;28;20026;-66
2021/12/20 13:12:37;;;;;;;1.98;0.60;;;4.20;84.90;;;;;;4998528;28;20032;-67
2021/12/20 13:15:56;;;;;;;0.88;0.50;;;4.10;84.80;;;;;;5014928;28;20484;-66
2021/12/20 13:18:08;;;;;;;0.85;0.45;;;4.10;85.50;;;;;;4999910;28;20042;-66
2021/12/20 13:20:47;;;;;;;0.70;0.50;;;4.00;84.60;;;;;;5002066;28;20034;-66
2021/12/20 13:23:13;;;;;;;1.05;0.52;;;4.00;85.90;;;;;;5005013;28;20045;-66